METAR AND TAF INFORMATION
METAR FOR LTBU
ADDS - METARS form results

(2105 UTC 21 February 2018)
Data provider http://aviationweather.gov/adds/metars/
 
METAR text: LTBU 212050Z 03014KT 9999 BKN009 07/05 Q1012 RMK RWY23 05013KT
Conditions at: LTBU (CORLU , TR) observed 2050 UTC 21 February 2018
Temperature: 7.0°C (45°F)
Dewpoint: 5.0°C (41°F) [RH = 87%]
Pressure (altimeter): 29.88 inches Hg (1012.0 mb)
Winds: from the NNE (30 degrees) at 16 MPH (14 knots; 7.3 m/s)
Visibility: 6 or more miles (10+ km)
Ceiling: 900 feet AGL
Clouds: broken clouds at 900 feet AGL
Weather: no significant weather observed at this time

METAR text: LTBU 212020Z 03013KT 9999 BKN009 07/05 Q1012 RMK RWY23 05011KT
Conditions at: LTBU (CORLU , TR) observed 2020 UTC 21 February 2018
Temperature: 7.0°C (45°F)
Dewpoint: 5.0°C (41°F) [RH = 87%]
Pressure (altimeter): 29.88 inches Hg (1012.0 mb)
Winds: from the NNE (30 degrees) at 15 MPH (13 knots; 6.8 m/s)
Visibility: 6 or more miles (10+ km)
Ceiling: 900 feet AGL
Clouds: broken clouds at 900 feet AGL
Weather: no significant weather observed at this time

Forecast for: LTBU (CORLU , TR)
Text: TAF LTBU 211640Z 2118/2218 04012KT 7000 BKN012 BKN025
Forecast period: 1800 to 2000 UTC 21 February 2018
Forecast type: FROM: standard forecast or significant change
Winds: from the NE (40 degrees) at 14 MPH (12 knots; 6.2 m/s)
Visibility: 4 miles (7 km)
Ceiling: 1200 feet AGL
Clouds: broken clouds at 1200 feet AGL
broken clouds at 2500 feet AGL
Weather: no significant weather forecast for this period
Text: TEMPO 2118/2120 -DZ
Forecast period: 1800 to 2000 UTC 21 February 2018
Forecast type: TEMPORARY: The following changes expected for less than half the time period
Weather: -DZ  (light drizzle)
Text: BECMG 2120/2124 -RADZ
Forecast period: 2000 UTC 21 February 2018 to 1800 UTC 22 February 2018
Forecast type: BECOMING: Conditions expected to become as follows by 0000 UTC 22 February 2018
Winds: from the NE (40 degrees) at 14 MPH (12 knots; 6.2 m/s)
Visibility: 4 miles (7 km)
Ceiling: 1200 feet AGL
Clouds: broken clouds at 1200 feet AGL
broken clouds at 2500 feet AGL
Weather: -RA -DZ  (light rain, light drizzle)
Text: TEMPO 2203/2207 3500 RA BR
Forecast period: 0300 to 0700 UTC 22 February 2018
Forecast type: TEMPORARY: The following changes expected for less than half the time period
Visibility: 2.17 miles (3.49 km)
Weather: RA BR  (rain, mist)

 AIRPORT MAP

 RUNWAY INFORMATION
Runway 05 Runway length 9844 ft Runway width 148 ft
Runway elevation 500 ft Runway displaced threshold 0 ft Runway heading 49
Runway 23 Runway length 9844 ft Runway width 148 ft
Runway elevation 574 ft Runway displaced threshold 0 ft Runway heading 229

 AIRPORT FREQUENCIES
Type APP Name YESILKOY A Frequency 120.5 MHZ
Type GND Name GND Frequency 121.9 MHZ
Type TWR Name TWR Frequency 120.375 MHZ

 AIRPORT NEAR NAVIGATION AIDS
Type TACAN Name Corlu Frequency 115900 KHZ
Type VOR-DME Name Corlu Frequency 114800 KHZ
Type NDB Name Corlu Frequency 426 KHZ